ilmateenistus.ee keskkonnaagentuur.ee
EETN Tallinn
FTEO31 EETN 071100
TAF EETN 071130Z 0712/0812 12008KT 5000 SN SCT008 BKN025 TEMPO
    0712/0719 1500 +SN BKN004 OVC015 TEMPO 0719/0806 3000 SN BKN010 BECMG
    0806/0808 VRB02KT PROB40 TEMPO 0806/0809 1000 +SN BR OVC003 BECMG
    0810/0812 23010KT=

SPECI EETN 071624Z 11007KT 2500 SN BKN024 OVC041 M04/M05 Q1002=
Tallinn
EEKA Kärdla
FCEO32 EETN 071300
TAF EEKA 071300Z 0714/0720 10008KT 2000 SN OVC007 TEMPO 0714/0717
    1200 +SHSN BKN004 BKN010 SCT013CB PROB30 TEMPO 0714/0717 -FZDZ TEMPO
    0717/0720 SCT013CB BKN015=

METAR EEKA 071620Z 09005KT 3200 -SN OVC005 M02/M02 Q1000=
Kärdla
EEKE Kuressaare
FCEO32 EETN 071500
TAF EEKE 071500Z 0716/0722 12008KT 3000 SN BKN005 OVC015 TEMPO
    0716/0718 1200 +SHSN BR BKN003 BKN010 SCT013CB=

SPECI EEKE 071630Z 09005KT 3000 SN SCT009 BKN022 00/M00 Q0999=
Kuressaare
EEPU Pärnu
METAR EEPU 071620Z AUTO 11006KT 4300 -SN FEW009/// BKN023/// OVC027/// M04/M05 Q1001=
Pärnu
EETU Tartu
METAR EETU 071620Z AUTO 12009KT 2500 -SN ///028/// M05/M06 Q1003=
Tartu
EEEI Ämari
METAR EEEI 071550Z 10006KT 3700 SN FEW007 BKN026 M03/M04 Q1002 NOSIG=
Ämari
Kihnu
Ruhnu
Ridali
Viljandi